Time;durP1;ratioP1;P1;durP2;ratioP2;P2;SDS_P1;SDS_P2;PMS_P1;PMS_P2;Temp;Humidity;BMP_temperature;BMP_pressure;BME280_temperature;BME280_humidity;BME280_pressure;Samples;Min_cycle;Max_cycle;Signal;HPM_P1;HPM_P2
2023/08/06 00:01:22;;;;;;;1.90;1.10;;;;;;;;;;107151;1273;25328;-83
2023/08/06 00:03:51;;;;;;;2.70;1.00;;;;;;;;;;107254;1273;25404;-84
2023/08/06 00:06:40;;;;;;;3.20;1.10;;;;;;;;;;107226;1261;22523;-80
2023/08/06 00:09:06;;;;;;;2.00;1.10;;;;;;;;;;107085;1273;24228;-79
2023/08/06 00:11:32;;;;;;;2.80;1.20;;;;;;;;;;107020;1273;25275;-81
2023/08/06 00:14:04;;;;;;;1.60;0.80;;;;;;;;;;107183;1251;24177;-86
2023/08/06 00:17:13;;;;;;;3.80;1.00;;;;;;;;;;107006;1274;22640;-84
2023/08/06 00:19:48;;;;;;;2.80;1.00;;;;;;;;;;107113;1274;22644;-82
2023/08/06 00:22:46;;;;;;;2.60;1.10;;;;;;;;;;107138;1273;25234;-84
2023/08/06 00:25:21;;;;;;;2.20;1.10;;;;;;;;;;107263;1250;25363;-84
2023/08/06 00:27:47;;;;;;;3.20;1.20;;;;;;;;;;107048;1273;22569;-81
2023/08/06 00:30:29;;;;;;;3.00;1.00;;;;;;;;;;107022;1273;22523;-82
2023/08/06 00:33:03;;;;;;;2.80;1.10;;;;;;;;;;107227;1273;22531;-81
2023/08/06 00:35:32;;;;;;;3.20;1.10;;;;;;;;;;107005;1257;25322;-82
2023/08/06 00:38:00;;;;;;;2.80;1.10;;;;;;;;;;107160;1274;22606;-85
2023/08/06 00:40:30;;;;;;;2.60;1.10;;;;;;;;;;107154;1273;25455;-83
2023/08/06 00:43:20;;;;;;;2.90;1.20;;;;;;;;;;107028;1273;22525;-85
2023/08/06 00:45:46;;;;;;;3.30;1.40;;;;;;;;;;107102;1257;25315;-80
2023/08/06 00:48:15;;;;;;;3.00;1.60;;;;;;;;;;107143;1272;22751;-80
2023/08/06 00:50:44;;;;;;;2.60;1.40;;;;;;;;;;107150;1272;22595;-85
2023/08/06 00:53:13;;;;;;;3.20;1.30;;;;;;;;;;107229;1273;22517;-81
2023/08/06 00:55:47;;;;;;;3.60;1.40;;;;;;;;;;107224;1251;22548;-80
2023/08/06 00:58:31;;;;;;;3.80;1.40;;;;;;;;;;106999;1274;22790;-82
2023/08/06 01:01:03;;;;;;;3.40;1.50;;;;;;;;;;106986;1274;25482;-81
2023/08/06 01:03:52;;;;;;;3.10;1.50;;;;;;;;;;106975;1274;24038;-81
2023/08/06 01:06:27;;;;;;;2.60;1.40;;;;;;;;;;107157;1254;22531;-79
2023/08/06 01:09:02;;;;;;;1.90;0.90;;;;;;;;;;107256;1272;22520;-79
2023/08/06 01:11:37;;;;;;;3.20;1.10;;;;;;;;;;107147;1272;22527;-83
2023/08/06 01:14:17;;;;;;;2.10;0.90;;;;;;;;;;107184;1272;24187;-80
2023/08/06 01:16:44;;;;;;;2.20;1.10;;;;;;;;;;107290;1263;25296;-84
2023/08/06 01:19:32;;;;;;;3.80;0.90;;;;;;;;;;107132;1271;23892;-81
2023/08/06 01:22:01;;;;;;;3.80;1.30;;;;;;;;;;107156;1273;22539;-81
2023/08/06 01:24:27;;;;;;;3.40;1.10;;;;;;;;;;106984;1273;22558;-83
2023/08/06 01:27:40;;;;;;;1.90;0.90;;;;;;;;;;107084;1256;25312;-80
2023/08/06 01:30:15;;;;;;;2.30;1.00;;;;;;;;;;107313;1272;22527;-80
2023/08/06 01:32:45;;;;;;;2.10;0.90;;;;;;;;;;107173;1273;25312;-80
2023/08/06 01:35:12;;;;;;;1.70;0.70;;;;;;;;;;107286;1273;22533;-81
2023/08/06 01:37:44;;;;;;;2.10;0.90;;;;;;;;;;107169;1272;22523;-85
2023/08/06 01:40:12;;;;;;;2.70;0.80;;;;;;;;;;107174;1273;24196;-82
2023/08/06 01:42:42;;;;;;;1.50;0.70;;;;;;;;;;107142;1273;22766;-88
2023/08/06 01:45:19;;;;;;;1.70;0.70;;;;;;;;;;107229;1273;25242;-87
2023/08/06 01:47:45;;;;;;;1.90;0.80;;;;;;;;;;107152;1273;25401;-82
2023/08/06 01:50:17;;;;;;;2.00;0.70;;;;;;;;;;107156;1257;22474;-83
2023/08/06 01:52:45;;;;;;;2.70;0.80;;;;;;;;;;107190;1273;22770;-87
2023/08/06 01:55:18;;;;;;;1.50;0.70;;;;;;;;;;107145;1273;24238;-90
2023/08/06 01:58:03;;;;;;;1.70;0.70;;;;;;;;;;107281;1267;23886;-82
2023/08/06 02:00:59;;;;;;;1.70;0.60;;;;;;;;;;107200;1273;22722;-85
2023/08/06 02:03:28;;;;;;;1.80;0.60;;;;;;;;;;107288;1273;22515;-84
2023/08/06 02:06:03;;;;;;;1.10;0.60;;;;;;;;;;107290;1273;24330;-85
2023/08/06 02:08:49;;;;;;;1.00;0.60;;;;;;;;;;107203;1256;22495;-89
2023/08/06 02:11:16;;;;;;;1.70;0.60;;;;;;;;;;107273;1272;22527;-86
2023/08/06 02:13:55;;;;;;;1.50;0.70;;;;;;;;;;107027;1273;22529;-88
2023/08/06 02:16:46;;;;;;;1.00;0.50;;;;;;;;;;107214;1273;22541;-85
2023/08/06 02:19:25;;;;;;;1.70;0.70;;;;;;;;;;107312;1273;24342;-89
2023/08/06 02:21:56;;;;;;;2.30;0.60;;;;;;;;;;107294;1273;25227;-86
2023/08/06 02:24:37;;;;;;;1.50;0.60;;;;;;;;;;107067;1273;22563;-86
2023/08/06 02:27:22;;;;;;;1.30;0.40;;;;;;;;;;107184;1273;24222;-83
2023/08/06 02:29:56;;;;;;;2.10;0.50;;;;;;;;;;107314;1263;24243;-90
2023/08/06 02:32:32;;;;;;;1.00;0.50;;;;;;;;;;107105;1273;22621;-83
2023/08/06 02:35:21;;;;;;;1.40;0.60;;;;;;;;;;107287;1273;22508;-83
2023/08/06 02:37:53;;;;;;;1.30;0.60;;;;;;;;;;107247;1251;25228;-88
2023/08/06 02:40:30;;;;;;;2.40;0.70;;;;;;;;;;107209;1273;26481;-80
2023/08/06 02:43:01;;;;;;;1.40;0.50;;;;;;;;;;107016;1273;22623;-81
2023/08/06 02:45:36;;;;;;;1.60;0.50;;;;;;;;;;107162;1273;23914;-85
2023/08/06 02:48:14;;;;;;;1.30;0.70;;;;;;;;;;107153;1251;22548;-83
2023/08/06 02:50:43;;;;;;;1.50;0.40;;;;;;;;;;107157;1273;22568;-87
2023/08/06 02:53:31;;;;;;;1.00;0.40;;;;;;;;;;107244;1273;25759;-90
2023/08/06 02:56:12;;;;;;;2.20;0.50;;;;;;;;;;107253;1273;22544;-83
2023/08/06 02:59:00;;;;;;;1.30;0.50;;;;;;;;;;107122;1256;25443;-83
2023/08/06 03:01:51;;;;;;;1.20;0.40;;;;;;;;;;107183;1273;22751;-87
2023/08/06 03:04:25;;;;;;;1.80;0.50;;;;;;;;;;107061;1273;25505;-84
2023/08/06 03:06:57;;;;;;;1.60;0.50;;;;;;;;;;107197;1273;25265;-86
2023/08/06 03:09:45;;;;;;;0.90;0.40;;;;;;;;;;107094;1267;25337;-92
2023/08/06 03:12:12;;;;;;;1.30;0.50;;;;;;;;;;107128;1273;22517;-83
2023/08/06 03:14:44;;;;;;;1.20;0.50;;;;;;;;;;107022;1273;22642;-89
2023/08/06 03:17:44;;;;;;;;;;;;;;;;;;;;;
2023/08/06 03:20:22;;;;;;;2.00;0.40;;;;;;;;;;107300;1273;22636;-87
2023/08/06 03:23:02;;;;;;;0.70;0.40;;;;;;;;;;107157;1273;22538;-85
2023/08/06 03:25:34;;;;;;;1.10;0.40;;;;;;;;;;107131;1267;22654;-85
2023/08/06 03:28:17;;;;;;;0.80;0.40;;;;;;;;;;107046;1273;23873;-85
2023/08/06 03:31:06;;;;;;;1.50;0.40;;;;;;;;;;106965;1260;22635;-91
2023/08/06 03:34:06;;;;;;;;;;;;;;;;;;;;;
2023/08/06 03:36:42;;;;;;;0.70;0.50;;;;;;;;;;107090;1274;24208;-86
2023/08/06 03:39:24;;;;;;;0.70;0.50;;;;;;;;;;107076;1254;26469;-84
2023/08/06 03:42:01;;;;;;;1.40;0.50;;;;;;;;;;106987;1275;24363;-82
2023/08/06 03:44:33;;;;;;;2.30;0.50;;;;;;;;;;106918;1275;22764;-84
2023/08/06 03:51:03;;;;;;;0.50;0.30;;;;;;;;;;107224;1266;22640;-86
2023/08/06 03:53:47;;;;;;;1.70;0.50;;;;;;;;;;107267;1273;23916;-85
2023/08/06 03:56:22;;;;;;;1.50;0.50;;;;;;;;;;107032;1273;25347;-85
2023/08/06 03:59:01;;;;;;;1.50;0.60;;;;;;;;;;107162;1273;22526;-85
2023/08/06 04:01:34;;;;;;;2.20;0.50;;;;;;;;;;107235;1256;22526;-91
2023/08/06 04:04:02;;;;;;;1.10;0.40;;;;;;;;;;107131;1274;22535;-84
2023/08/06 04:06:31;;;;;;;1.10;0.70;;;;;;;;;;107200;1273;24262;-83
2023/08/06 04:09:21;;;;;;;0.90;0.40;;;;;;;;;;107301;1273;22550;-83
2023/08/06 04:12:05;;;;;;;;;;;;;;;;;;;;;
2023/08/06 04:14:58;;;;;;;1.00;0.40;;;;;;;;;;107076;1273;22534;-86
2023/08/06 04:18:02;;;;;;;0.80;0.30;;;;;;;;;;107196;1273;22537;-80
2023/08/06 04:20:52;;;;;;;0.90;0.50;;;;;;;;;;107346;1263;22992;-88
2023/08/06 04:23:24;;;;;;;0.70;0.50;;;;;;;;;;107349;1272;22482;-86
2023/08/06 04:26:29;;;;;;;1.10;0.40;;;;;;;;;;107333;1272;22531;-87
2023/08/06 04:29:27;;;;;;;1.40;0.50;;;;;;;;;;107325;1272;24337;-81
2023/08/06 04:31:59;;;;;;;1.40;0.30;;;;;;;;;;107200;1256;22577;-81
2023/08/06 04:34:33;;;;;;;1.00;0.40;;;;;;;;;;107009;1274;22534;-85
2023/08/06 04:37:08;;;;;;;1.40;0.30;;;;;;;;;;107149;1274;24194;-81
2023/08/06 04:39:49;;;;;;;2.50;0.40;;;;;;;;;;106977;1274;25264;-85
2023/08/06 04:42:17;;;;;;;0.70;0.40;;;;;;;;;;107131;1272;22534;-81
2023/08/06 04:45:24;;;;;;;1.10;0.40;;;;;;;;;;107249;1272;22526;-90
2023/08/06 04:48:19;;;;;;;1.50;0.60;;;;;;;;;;107379;1272;25223;-89
2023/08/06 04:51:18;;;;;;;;;;;;;;;;;;;;;
2023/08/06 04:53:57;;;;;;;0.70;0.50;;;;;;;;;;107211;1275;22546;-83
2023/08/06 04:56:51;;;;;;;0.90;0.50;;;;;;;;;;107036;1274;23892;-83
2023/08/06 04:59:31;;;;;;;1.50;0.50;;;;;;;;;;104004;1275;5402104;-85
2023/08/06 05:05:46;;;;;;;0.90;0.50;;;;;;;;;;106883;1278;26497;-86
2023/08/06 05:09:01;;;;;;;2.50;0.60;;;;;;;;;;106896;1278;24473;-86
2023/08/06 05:11:53;;;;;;;0.70;0.50;;;;;;;;;;106872;1261;23122;-84
2023/08/06 05:14:32;;;;;;;0.90;0.60;;;;;;;;;;106819;1278;22534;-87
2023/08/06 05:17:04;;;;;;;1.20;0.60;;;;;;;;;;106891;1278;22538;-84
2023/08/06 05:19:54;;;;;;;1.50;0.50;;;;;;;;;;106856;1278;24215;-86
2023/08/06 05:22:39;;;;;;;1.50;0.60;;;;;;;;;;106976;1260;25511;-84
2023/08/06 05:25:26;;;;;;;1.60;0.50;;;;;;;;;;106749;1278;22653;-83
2023/08/06 05:28:18;;;;;;;;;;;;;;;;;;;;;
2023/08/06 05:31:36;;;;;;;;;;;;;;;;;;;;;
2023/08/06 05:34:26;;;;;;;0.80;0.50;;;;;;;;;;106900;1278;25359;-85
2023/08/06 05:37:02;;;;;;;0.80;0.50;;;;;;;;;;106933;1275;22537;-89
2023/08/06 05:39:46;;;;;;;1.60;0.50;;;;;;;;;;106961;1275;22554;-81
2023/08/06 05:42:18;;;;;;;1.80;0.50;;;;;;;;;;107061;1252;22586;-83
2023/08/06 05:44:58;;;;;;;0.90;0.50;;;;;;;;;;107235;1261;22633;-82
2023/08/06 05:47:30;;;;;;;1.20;0.50;;;;;;;;;;107330;1272;24183;-82
2023/08/06 05:50:08;;;;;;;1.70;0.50;;;;;;;;;;107204;1272;23112;-84
2023/08/06 05:53:10;;;;;;;1.20;0.60;;;;;;;;;;107310;1250;22777;-86
2023/08/06 05:55:58;;;;;;;1.30;0.50;;;;;;;;;;107182;1273;22542;-88
2023/08/06 05:58:33;;;;;;;1.60;0.60;;;;;;;;;;106960;1273;25072;-88
2023/08/06 06:01:03;;;;;;;1.80;0.70;;;;;;;;;;107227;1273;25443;-82
2023/08/06 06:03:47;;;;;;;1.20;0.60;;;;;;;;;;107115;1256;23863;-83
2023/08/06 06:06:20;;;;;;;1.00;0.50;;;;;;;;;;107260;1272;22531;-84
2023/08/06 06:08:49;;;;;;;1.00;0.40;;;;;;;;;;107319;1272;22537;-84
2023/08/06 06:11:22;;;;;;;1.20;0.60;;;;;;;;;;107318;1272;25284;-87
2023/08/06 06:13:55;;;;;;;0.80;0.40;;;;;;;;;;107272;1254;23870;-81
2023/08/06 06:16:34;;;;;;;1.60;0.50;;;;;;;;;;107103;1273;22613;-80
2023/08/06 06:19:01;;;;;;;1.00;0.50;;;;;;;;;;107063;1273;24265;-85
2023/08/06 06:21:28;;;;;;;0.80;0.40;;;;;;;;;;106930;1273;22524;-82
2023/08/06 06:23:56;;;;;;;1.80;0.50;;;;;;;;;;107000;1267;25311;-84
2023/08/06 06:26:34;;;;;;;1.10;0.50;;;;;;;;;;107254;1272;22530;-82
2023/08/06 06:29:03;;;;;;;1.00;0.50;;;;;;;;;;107083;1272;22474;-86
2023/08/06 06:31:33;;;;;;;1.40;0.50;;;;;;;;;;107207;1272;22520;-85
2023/08/06 06:34:08;;;;;;;0.70;0.40;;;;;;;;;;107064;1257;22738;-88
2023/08/06 06:36:54;;;;;;;1.40;0.60;;;;;;;;;;106914;1274;25343;-84
2023/08/06 06:39:24;;;;;;;1.00;0.40;;;;;;;;;;106913;1254;22502;-90
2023/08/06 06:41:53;;;;;;;0.90;0.40;;;;;;;;;;107023;1274;25346;-86
2023/08/06 06:44:38;;;;;;;1.10;0.60;;;;;;;;;;107302;1272;23630;-85
2023/08/06 06:47:08;;;;;;;1.50;0.60;;;;;;;;;;107258;1272;24296;-88
2023/08/06 06:49:34;;;;;;;0.90;0.60;;;;;;;;;;107279;1259;22534;-86
2023/08/06 06:52:05;;;;;;;1.30;0.50;;;;;;;;;;107274;1272;25374;-86
2023/08/06 06:54:35;;;;;;;1.30;0.50;;;;;;;;;;107034;1258;22771;-87
2023/08/06 06:57:19;;;;;;;1.20;0.50;;;;;;;;;;107111;1274;22544;-91
2023/08/06 06:59:54;;;;;;;1.60;0.50;;;;;;;;;;107014;1274;22534;-81
2023/08/06 07:02:54;;;;;;;1.20;0.50;;;;;;;;;;107157;1274;25429;-81
2023/08/06 07:05:23;;;;;;;1.40;0.60;;;;;;;;;;107345;1253;22857;-85
2023/08/06 07:08:05;;;;;;;1.60;0.70;;;;;;;;;;107352;1266;25340;-85
2023/08/06 07:10:41;;;;;;;1.50;0.60;;;;;;;;;;107336;1273;25312;-87
2023/08/06 07:13:28;;;;;;;1.30;0.60;;;;;;;;;;107103;1274;22555;-86
2023/08/06 07:15:55;;;;;;;1.00;0.50;;;;;;;;;;107116;1250;22530;-89
2023/08/06 07:18:26;;;;;;;1.50;0.70;;;;;;;;;;107235;1259;22640;-85
2023/08/06 07:20:54;;;;;;;1.00;0.60;;;;;;;;;;107186;1273;25274;-85
2023/08/06 07:23:22;;;;;;;1.60;0.60;;;;;;;;;;107199;1273;25284;-83
2023/08/06 07:25:49;;;;;;;1.00;0.50;;;;;;;;;;107259;1257;22631;-87
2023/08/06 07:28:16;;;;;;;1.20;0.60;;;;;;;;;;107053;1262;24243;-90
2023/08/06 07:30:43;;;;;;;1.20;0.60;;;;;;;;;;107224;1273;24256;-85
2023/08/06 07:33:16;;;;;;;2.20;0.60;;;;;;;;;;107250;1251;22523;-82
2023/08/06 07:35:43;;;;;;;0.70;0.50;;;;;;;;;;107180;1266;26481;-85
2023/08/06 07:38:10;;;;;;;1.20;0.60;;;;;;;;;;107172;1273;22781;-83
2023/08/06 07:40:37;;;;;;;1.70;0.70;;;;;;;;;;107319;1273;25274;-84
2023/08/06 07:43:11;;;;;;;1.60;0.60;;;;;;;;;;107039;1273;25259;-82
2023/08/06 07:45:40;;;;;;;1.50;0.60;;;;;;;;;;107187;1257;25262;-81
2023/08/06 07:48:07;;;;;;;1.70;0.40;;;;;;;;;;107289;1273;25217;-87
2023/08/06 07:50:50;;;;;;;1.30;0.50;;;;;;;;;;106988;1273;22555;-84
2023/08/06 07:53:17;;;;;;;1.50;0.80;;;;;;;;;;107147;1273;22605;-81
2023/08/06 07:55:47;;;;;;;1.50;0.70;;;;;;;;;;107206;1273;22882;-83
2023/08/06 07:58:14;;;;;;;0.70;0.40;;;;;;;;;;107001;1273;22521;-80
2023/08/06 08:00:45;;;;;;;1.20;0.60;;;;;;;;;;107035;1273;22773;-82
2023/08/06 08:03:14;;;;;;;0.90;0.40;;;;;;;;;;107217;1273;22522;-86
2023/08/06 08:05:44;;;;;;;1.00;0.60;;;;;;;;;;107366;1254;25110;-85
2023/08/06 08:08:11;;;;;;;1.60;0.60;;;;;;;;;;107218;1274;25312;-82
2023/08/06 08:10:40;;;;;;;1.90;0.60;;;;;;;;;;107160;1273;22517;-82
2023/08/06 08:13:07;;;;;;;1.90;0.50;;;;;;;;;;107269;1273;22519;-85
2023/08/06 08:15:34;;;;;;;1.50;0.70;;;;;;;;;;106986;1257;22517;-87
2023/08/06 08:18:00;;;;;;;1.50;0.70;;;;;;;;;;107029;1274;23892;-83
2023/08/06 08:20:31;;;;;;;1.00;0.60;;;;;;;;;;107248;1273;23109;-82
2023/08/06 08:22:59;;;;;;;1.10;0.50;;;;;;;;;;107026;1274;22698;-84
2023/08/06 08:25:28;;;;;;;1.10;0.60;;;;;;;;;;107352;1251;25230;-85
2023/08/06 08:27:55;;;;;;;1.10;0.50;;;;;;;;;;107174;1269;25387;-84
2023/08/06 08:30:35;;;;;;;1.50;0.80;;;;;;;;;;106988;1273;22539;-85
2023/08/06 08:33:08;;;;;;;0.80;0.60;;;;;;;;;;107481;1273;25238;-80
2023/08/06 08:35:44;;;;;;;1.10;0.50;;;;;;;;;;107026;1251;25783;-84
2023/08/06 08:38:13;;;;;;;1.30;0.50;;;;;;;;;;106939;1271;22520;-84
2023/08/06 08:40:49;;;;;;;0.90;0.50;;;;;;;;;;107167;1273;25389;-87
2023/08/06 08:43:19;;;;;;;3.70;1.40;;;;;;;;;;107007;1273;24750;-85
2023/08/06 08:45:49;;;;;;;1.50;0.80;;;;;;;;;;107171;1262;22485;-81
2023/08/06 08:48:17;;;;;;;1.70;0.60;;;;;;;;;;107095;1273;25382;-84
2023/08/06 08:50:50;;;;;;;1.00;0.60;;;;;;;;;;107243;1273;24368;-83
2023/08/06 08:53:25;;;;;;;0.90;0.50;;;;;;;;;;107165;1273;24172;-81
2023/08/06 08:56:12;;;;;;;1.60;1.10;;;;;;;;;;107238;1251;22526;-84
2023/08/06 08:58:39;;;;;;;1.30;0.80;;;;;;;;;;107178;1273;22504;-79
2023/08/06 09:01:08;;;;;;;1.40;0.60;;;;;;;;;;107000;1273;22513;-88
2023/08/06 09:03:36;;;;;;;1.70;0.50;;;;;;;;;;107058;1274;25393;-83
2023/08/06 09:06:26;;;;;;;1.90;1.00;;;;;;;;;;107012;1251;25390;-86
2023/08/06 09:09:04;;;;;;;1.80;0.70;;;;;;;;;;107241;1273;22511;-89
2023/08/06 09:11:39;;;;;;;1.00;0.50;;;;;;;;;;107212;1274;26560;-83
2023/08/06 09:14:25;;;;;;;1.20;0.50;;;;;;;;;;107263;1273;25328;-88
2023/08/06 09:16:55;;;;;;;0.80;0.50;;;;;;;;;;106981;1253;24252;-90
2023/08/06 09:19:24;;;;;;;1.10;0.60;;;;;;;;;;107092;1274;24212;-83
2023/08/06 09:21:54;;;;;;;1.70;0.60;;;;;;;;;;107270;1273;25252;-83
2023/08/06 09:24:22;;;;;;;1.80;0.70;;;;;;;;;;107197;1274;22525;-87
2023/08/06 09:26:48;;;;;;;1.00;0.60;;;;;;;;;;107009;1250;22524;-82
2023/08/06 09:29:18;;;;;;;1.00;0.50;;;;;;;;;;106997;1273;25318;-81
2023/08/06 09:31:48;;;;;;;0.90;0.50;;;;;;;;;;107161;1274;25342;-88
2023/08/06 09:34:17;;;;;;;1.10;0.50;;;;;;;;;;106981;1270;22513;-87
2023/08/06 09:36:50;;;;;;;1.20;0.60;;;;;;;;;;107007;1261;25306;-84
2023/08/06 09:39:21;;;;;;;1.30;0.60;;;;;;;;;;107055;1273;25220;-87
2023/08/06 09:41:48;;;;;;;1.70;0.50;;;;;;;;;;107214;1269;24240;-86
2023/08/06 09:44:23;;;;;;;1.10;0.50;;;;;;;;;;107222;1273;22598;-85
2023/08/06 09:46:51;;;;;;;1.30;0.50;;;;;;;;;;107168;1251;22513;-81
2023/08/06 09:49:18;;;;;;;0.80;0.50;;;;;;;;;;107037;1273;22507;-82
2023/08/06 09:51:46;;;;;;;1.30;0.60;;;;;;;;;;107179;1274;25258;-88
2023/08/06 09:54:16;;;;;;;1.00;0.60;;;;;;;;;;107231;1273;25272;-85
2023/08/06 09:56:43;;;;;;;2.10;0.60;;;;;;;;;;107015;1273;24227;-86
2023/08/06 09:59:11;;;;;;;2.00;0.80;;;;;;;;;;107056;1273;24246;-82
2023/08/06 10:01:37;;;;;;;1.70;0.50;;;;;;;;;;107299;1273;25332;-80
2023/08/06 10:04:05;;;;;;;1.50;0.60;;;;;;;;;;107233;1253;22521;-84
2023/08/06 10:06:37;;;;;;;0.90;0.40;;;;;;;;;;107018;1273;22796;-81
2023/08/06 10:09:04;;;;;;;1.40;0.50;;;;;;;;;;107285;1250;25376;-87
2023/08/06 10:11:32;;;;;;;0.90;0.60;;;;;;;;;;107022;1273;22572;-83
2023/08/06 10:14:08;;;;;;;1.30;0.50;;;;;;;;;;107061;1273;22590;-84
2023/08/06 10:16:36;;;;;;;1.30;0.50;;;;;;;;;;107191;1273;22629;-86
2023/08/06 10:19:06;;;;;;;0.80;0.50;;;;;;;;;;107247;1256;25838;-87
2023/08/06 10:21:35;;;;;;;1.90;0.60;;;;;;;;;;107130;1274;24186;-86
2023/08/06 10:24:06;;;;;;;0.80;0.50;;;;;;;;;;107280;1273;22607;-84
2023/08/06 10:26:33;;;;;;;1.10;0.50;;;;;;;;;;107298;1273;22484;-86
2023/08/06 10:29:00;;;;;;;0.90;0.50;;;;;;;;;;107255;1256;24184;-81
2023/08/06 10:31:46;;;;;;;0.80;0.50;;;;;;;;;;107165;1273;24259;-88
2023/08/06 10:34:16;;;;;;;1.00;0.50;;;;;;;;;;107161;1273;25357;-83
2023/08/06 10:36:46;;;;;;;1.20;0.70;;;;;;;;;;107201;1274;26503;-88
2023/08/06 10:39:18;;;;;;;0.90;0.60;;;;;;;;;;107288;1253;22532;-84
2023/08/06 10:41:47;;;;;;;0.90;0.60;;;;;;;;;;107231;1273;25325;-87
2023/08/06 10:44:17;;;;;;;2.20;0.60;;;;;;;;;;107226;1273;24239;-86
2023/08/06 10:46:49;;;;;;;0.70;0.40;;;;;;;;;;107269;1262;22562;-85
2023/08/06 10:49:22;;;;;;;1.00;0.50;;;;;;;;;;107275;1273;22526;-85
2023/08/06 10:51:49;;;;;;;1.30;0.70;;;;;;;;;;107025;1274;22741;-82
2023/08/06 10:54:16;;;;;;;0.80;0.50;;;;;;;;;;107027;1274;22656;-84
2023/08/06 10:56:49;;;;;;;1.00;0.60;;;;;;;;;;107167;1273;25353;-88
2023/08/06 10:59:16;;;;;;;1.00;0.50;;;;;;;;;;107189;1257;22520;-86
2023/08/06 11:01:43;;;;;;;3.50;0.60;;;;;;;;;;107279;1273;25659;-86
2023/08/06 11:04:15;;;;;;;0.90;0.60;;;;;;;;;;107172;1273;24442;-87
2023/08/06 11:06:42;;;;;;;1.10;0.50;;;;;;;;;;107208;1272;22569;-84
2023/08/06 11:09:11;;;;;;;1.40;0.50;;;;;;;;;;107229;1256;25440;-82
2023/08/06 11:11:42;;;;;;;2.40;0.80;;;;;;;;;;107021;1273;22521;-82
2023/08/06 11:14:15;;;;;;;1.50;0.50;;;;;;;;;;107283;1273;22523;-84
2023/08/06 11:16:42;;;;;;;2.10;0.70;;;;;;;;;;107174;1274;25658;-81
2023/08/06 11:19:11;;;;;;;2.00;0.60;;;;;;;;;;107047;1256;22543;-86
2023/08/06 11:21:39;;;;;;;2.10;0.60;;;;;;;;;;107063;1273;25334;-83
2023/08/06 11:24:18;;;;;;;0.90;0.50;;;;;;;;;;107189;1274;22604;-91
2023/08/06 11:26:47;;;;;;;1.00;0.50;;;;;;;;;;107227;1273;22633;-83
2023/08/06 11:29:26;;;;;;;0.80;0.50;;;;;;;;;;107014;1254;25578;-82
2023/08/06 11:32:03;;;;;;;1.60;0.40;;;;;;;;;;107316;1269;25325;-85
2023/08/06 11:34:33;;;;;;;1.00;0.50;;;;;;;;;;107235;1273;22521;-81
2023/08/06 11:37:00;;;;;;;2.20;0.70;;;;;;;;;;107022;1273;22636;-84
2023/08/06 11:39:27;;;;;;;1.50;0.70;;;;;;;;;;107063;1259;25536;-85
2023/08/06 11:41:56;;;;;;;3.20;0.70;;;;;;;;;;107037;1273;25342;-87
2023/08/06 11:44:26;;;;;;;1.50;0.60;;;;;;;;;;107066;1273;22532;-90
2023/08/06 11:46:56;;;;;;;1.30;0.70;;;;;;;;;;106987;1274;22658;-86
2023/08/06 11:49:44;;;;;;;2.30;0.60;;;;;;;;;;107103;1251;22567;-82
2023/08/06 11:52:14;;;;;;;1.50;0.80;;;;;;;;;;107299;1273;25224;-84
2023/08/06 11:54:43;;;;;;;1.70;0.80;;;;;;;;;;107304;1273;22767;-82
2023/08/06 11:57:14;;;;;;;1.70;0.90;;;;;;;;;;107251;1273;24214;-84
2023/08/06 11:59:46;;;;;;;1.40;0.80;;;;;;;;;;107300;1273;25520;-85
2023/08/06 12:02:13;;;;;;;2.60;1.00;;;;;;;;;;107260;1264;24928;-84
2023/08/06 12:05:01;;;;;;;2.50;1.00;;;;;;;;;;107296;1273;22546;-85
2023/08/06 12:07:29;;;;;;;2.30;1.00;;;;;;;;;;107330;1273;25428;-85
2023/08/06 12:09:58;;;;;;;1.60;0.80;;;;;;;;;;107272;1251;22620;-86
2023/08/06 12:12:35;;;;;;;2.30;1.00;;;;;;;;;;107301;1273;23129;-83
2023/08/06 12:15:12;;;;;;;1.90;0.80;;;;;;;;;;107284;1273;22523;-80
2023/08/06 12:17:41;;;;;;;1.90;1.10;;;;;;;;;;107048;1273;23873;-82
2023/08/06 12:20:11;;;;;;;1.80;1.00;;;;;;;;;;107179;1250;22643;-84
2023/08/06 12:22:39;;;;;;;2.00;1.00;;;;;;;;;;107022;1273;23899;-84
2023/08/06 12:25:11;;;;;;;2.00;0.90;;;;;;;;;;107234;1273;24193;-88
2023/08/06 12:27:41;;;;;;;1.70;0.90;;;;;;;;;;107280;1273;25283;-86
2023/08/06 12:30:12;;;;;;;2.00;1.00;;;;;;;;;;107165;1251;26481;-80
2023/08/06 12:32:41;;;;;;;2.00;1.00;;;;;;;;;;107003;1273;22646;-85
2023/08/06 12:35:08;;;;;;;1.80;1.10;;;;;;;;;;107022;1273;22525;-80
2023/08/06 12:37:43;;;;;;;1.60;1.00;;;;;;;;;;107170;1274;22528;-87
2023/08/06 12:40:28;;;;;;;1.70;0.70;;;;;;;;;;107118;1250;24321;-83
2023/08/06 12:42:59;;;;;;;1.90;0.90;;;;;;;;;;107041;1273;24286;-82
2023/08/06 12:45:28;;;;;;;2.90;1.10;;;;;;;;;;107282;1273;25441;-82
2023/08/06 12:47:56;;;;;;;2.80;1.30;;;;;;;;;;107278;1273;22636;-84
2023/08/06 12:50:28;;;;;;;1.50;0.90;;;;;;;;;;106987;1274;22517;-83
2023/08/06 12:52:55;;;;;;;1.70;1.10;;;;;;;;;;107023;1260;22530;-86
2023/08/06 12:55:28;;;;;;;2.10;1.20;;;;;;;;;;107149;1273;25498;-87
2023/08/06 12:57:55;;;;;;;1.80;1.00;;;;;;;;;;107045;1273;24668;-83
2023/08/06 13:00:47;;;;;;;2.20;0.80;;;;;;;;;;107221;1274;25248;-81
2023/08/06 13:03:17;;;;;;;2.50;1.00;;;;;;;;;;107073;1256;22516;-87
2023/08/06 13:05:45;;;;;;;1.70;0.90;;;;;;;;;;107192;1274;22524;-87
2023/08/06 13:08:12;;;;;;;2.20;0.90;;;;;;;;;;107000;1274;22520;-85
2023/08/06 13:10:44;;;;;;;1.80;1.00;;;;;;;;;;107256;1274;22639;-83
2023/08/06 13:13:11;;;;;;;1.50;0.90;;;;;;;;;;106997;1259;23049;-85
2023/08/06 13:15:41;;;;;;;3.30;1.00;;;;;;;;;;107159;1274;22687;-83
2023/08/06 13:18:09;;;;;;;1.90;1.00;;;;;;;;;;107114;1273;25337;-85
2023/08/06 13:20:38;;;;;;;1.50;0.80;;;;;;;;;;107177;1274;22531;-85
2023/08/06 13:23:10;;;;;;;1.80;1.00;;;;;;;;;;106997;1257;24655;-88
2023/08/06 13:25:39;;;;;;;1.60;0.80;;;;;;;;;;107143;1273;25369;-87
2023/08/06 13:28:06;;;;;;;2.10;1.00;;;;;;;;;;107036;1274;22517;-92
2023/08/06 13:30:35;;;;;;;2.10;0.90;;;;;;;;;;107048;1273;22539;-84
2023/08/06 13:33:04;;;;;;;2.60;1.10;;;;;;;;;;107169;1274;25304;-81
2023/08/06 13:35:33;;;;;;;1.80;0.80;;;;;;;;;;107225;1273;22539;-83
2023/08/06 13:38:02;;;;;;;1.80;0.90;;;;;;;;;;107017;1273;22524;-87
2023/08/06 13:40:30;;;;;;;2.00;1.00;;;;;;;;;;107005;1273;24220;-82
2023/08/06 13:42:59;;;;;;;2.20;1.00;;;;;;;;;;107022;1257;23905;-82
2023/08/06 13:45:26;;;;;;;1.70;1.00;;;;;;;;;;107189;1273;24267;-87
2023/08/06 13:47:58;;;;;;;2.70;1.10;;;;;;;;;;107284;1273;22578;-83
2023/08/06 13:50:26;;;;;;;2.60;0.90;;;;;;;;;;107030;1273;25527;-83
2023/08/06 13:52:55;;;;;;;2.30;1.00;;;;;;;;;;107205;1256;25334;-85
2023/08/06 13:55:26;;;;;;;1.70;0.90;;;;;;;;;;107182;1273;25373;-85
2023/08/06 13:57:53;;;;;;;3.30;1.20;;;;;;;;;;106996;1273;25622;-82
2023/08/06 14:00:20;;;;;;;5.30;1.40;;;;;;;;;;107245;1273;25239;-85
2023/08/06 14:02:46;;;;;;;2.10;1.10;;;;;;;;;;107182;1257;24040;-81
2023/08/06 14:05:13;;;;;;;2.30;1.00;;;;;;;;;;107087;1273;22530;-86
2023/08/06 14:07:43;;;;;;;2.80;1.40;;;;;;;;;;107275;1273;25402;-84
2023/08/06 14:10:15;;;;;;;2.30;1.10;;;;;;;;;;107035;1273;22514;-83
2023/08/06 14:12:42;;;;;;;2.30;1.00;;;;;;;;;;107211;1251;24634;-83
2023/08/06 14:15:10;;;;;;;3.20;1.00;;;;;;;;;;106968;1273;24240;-83
2023/08/06 14:17:37;;;;;;;2.00;1.10;;;;;;;;;;107181;1273;22760;-90
2023/08/06 14:20:07;;;;;;;2.90;1.10;;;;;;;;;;107201;1273;25359;-85
2023/08/06 14:22:34;;;;;;;1.70;0.90;;;;;;;;;;107198;1274;22527;-81
2023/08/06 14:25:01;;;;;;;2.40;1.20;;;;;;;;;;107144;1267;24320;-82
2023/08/06 14:27:31;;;;;;;2.40;1.00;;;;;;;;;;107265;1273;24138;-82
2023/08/06 14:29:58;;;;;;;2.00;1.00;;;;;;;;;;107207;1273;24385;-84
2023/08/06 14:32:25;;;;;;;2.50;1.00;;;;;;;;;;106987;1273;22525;-85
2023/08/06 14:34:52;;;;;;;1.80;1.00;;;;;;;;;;107048;1259;25353;-85
2023/08/06 14:37:22;;;;;;;1.90;0.90;;;;;;;;;;107175;1274;25217;-81
2023/08/06 14:39:51;;;;;;;2.40;0.90;;;;;;;;;;107007;1274;22537;-87
2023/08/06 14:42:18;;;;;;;2.50;1.00;;;;;;;;;;107120;1274;24448;-81
2023/08/06 14:44:45;;;;;;;2.80;1.00;;;;;;;;;;107023;1273;22513;-82
2023/08/06 14:47:12;;;;;;;2.10;1.10;;;;;;;;;;107191;1274;22519;-83
2023/08/06 14:49:41;;;;;;;2.20;1.00;;;;;;;;;;107063;1273;22525;-83
2023/08/06 14:52:08;;;;;;;2.50;1.10;;;;;;;;;;107108;1262;25350;-82
2023/08/06 14:54:38;;;;;;;2.40;1.10;;;;;;;;;;107278;1256;25268;-85
2023/08/06 14:57:08;;;;;;;2.40;1.10;;;;;;;;;;107216;1273;22627;-84
2023/08/06 14:59:35;;;;;;;2.50;1.10;;;;;;;;;;106936;1274;22533;-85
2023/08/06 15:02:03;;;;;;;3.00;1.20;;;;;;;;;;107095;1263;22476;-81
2023/08/06 15:04:30;;;;;;;2.30;1.10;;;;;;;;;;107231;1257;25262;-82
2023/08/06 15:07:19;;;;;;;2.30;1.10;;;;;;;;;;107271;1273;22528;-83
2023/08/06 15:09:53;;;;;;;1.90;0.90;;;;;;;;;;107197;1273;24204;-85
2023/08/06 15:12:20;;;;;;;2.60;1.10;;;;;;;;;;107137;1273;22520;-82
2023/08/06 15:14:47;;;;;;;2.90;1.20;;;;;;;;;;107214;1260;24212;-86
2023/08/06 15:17:19;;;;;;;3.10;1.10;;;;;;;;;;107265;1269;24225;-88
2023/08/06 15:19:46;;;;;;;2.60;1.00;;;;;;;;;;107036;1273;22524;-87
2023/08/06 15:22:13;;;;;;;2.50;0.90;;;;;;;;;;107204;1273;25516;-86
2023/08/06 15:24:42;;;;;;;1.80;0.80;;;;;;;;;;107290;1253;22520;-85